Time;durP1;ratioP1;P1;durP2;ratioP2;P2;SDS_P1;SDS_P2;PMS_P1;PMS_P2;Temp;Humidity;BMP_temperature;BMP_pressure;BME280_temperature;BME280_humidity;BME280_pressure;Samples;Min_cycle;Max_cycle;Signal;HPM_P1;HPM_P2
2022/12/05 00:00:10;;;;;;;45.97;23.17;;;;;;;11.61;55.82;101974.66;5070384;28;20036;-69
2022/12/05 00:02:35;;;;;;;44.92;23.75;;;;;;;11.88;55.07;101970.97;5043640;28;20044;-70
2022/12/05 00:05:01;;;;;;;43.90;24.77;;;;;;;11.60;56.15;101978.34;5070317;28;20111;-71
2022/12/05 00:07:27;;;;;;;47.65;24.70;;;;;;;11.41;56.33;101972.75;5071173;28;20107;-70
2022/12/05 00:09:52;;;;;;;46.63;23.17;;;;;;;11.34;56.56;101976.47;5074734;28;20217;-70
2022/12/05 00:12:18;;;;;;;47.22;24.98;;;;;;;11.05;57.80;101971.34;5074234;28;20064;-69
2022/12/05 00:14:43;;;;;;;42.75;24.20;;;;;;;10.99;57.75;101966.78;5070982;28;20484;-68
2022/12/05 00:17:08;;;;;;;49.00;25.45;;;;;;;11.54;56.46;101971.94;5073912;28;20408;-68
2022/12/05 00:19:34;;;;;;;45.47;22.83;;;;;;;11.60;57.00;101968.44;5073996;28;20040;-70
2022/12/05 00:21:59;;;;;;;42.55;23.60;;;;;;;10.86;58.52;101969.41;5074036;28;20104;-69
2022/12/05 00:24:25;;;;;;;45.47;24.95;;;;;;;11.11;57.90;101971.41;5073989;28;20036;-69
2022/12/05 00:26:50;;;;;;;51.83;24.58;;;;;;;11.25;57.62;101964.19;5073821;28;20120;-70
2022/12/05 00:29:16;;;;;;;44.53;22.50;;;;;;;10.94;58.58;101963.88;5073806;28;20036;-70
2022/12/05 00:31:41;;;;;;;44.08;23.30;;;;;;;10.94;58.88;101961.19;5073664;28;20499;-69
2022/12/05 00:34:07;;;;;;;48.75;23.63;;;;;;;10.63;59.35;101961.66;5074251;28;20051;-70
2022/12/05 00:36:34;;;;;;;42.33;22.38;;;;;;;10.83;59.58;101957.19;5073562;28;20028;-71
2022/12/05 00:39:01;;;;;;;45.83;22.20;;;;;;;10.86;59.35;101962.19;5073380;28;20696;-71
2022/12/05 00:41:28;;;;;;;47.35;22.98;;;;;;;11.09;58.83;101961.84;5073687;28;20082;-70
2022/12/05 00:43:54;;;;;;;38.97;22.45;;;;;;;11.10;58.78;101960.84;5073216;28;20041;-70
2022/12/05 00:46:22;;;;;;;43.72;23.92;;;;;;;10.47;60.24;101970.03;5073350;28;20031;-70
2022/12/05 00:48:48;;;;;;;45.20;21.95;;;;;;;10.97;59.02;101968.84;5073938;28;20056;-68
2022/12/05 00:51:19;;;;;;;43.72;22.33;;;;;;;10.95;58.78;101971.72;5062968;28;20361;-70
2022/12/05 00:53:46;;;;;;;43.97;21.88;;;;;;;10.62;60.03;101957.28;5069241;28;22678;-70
2022/12/05 00:56:20;;;;;;;45.42;22.83;;;;;;;10.78;59.34;101969.56;5073297;28;20040;-71
2022/12/05 00:58:46;;;;;;;44.47;23.38;;;;;;;10.76;59.52;101971.63;5070774;28;20033;-70
2022/12/05 01:01:16;;;;;;;44.45;21.55;;;;;;;10.60;59.82;101967.41;5073741;28;20036;-71
2022/12/05 01:03:43;;;;;;;43.63;23.13;;;;;;;10.97;58.91;101966.97;5073483;28;20571;-71
2022/12/05 01:06:09;;;;;;;43.88;22.83;;;;;;;11.04;58.69;101969.72;5073004;28;20181;-70
2022/12/05 01:08:35;;;;;;;43.95;22.88;;;;;;;10.73;59.99;101974.72;5073189;28;20120;-70
2022/12/05 01:11:02;;;;;;;42.05;22.10;;;;;;;10.54;60.80;101981.63;5054215;28;20040;-70
2022/12/05 01:13:28;;;;;;;47.35;24.30;;;;;;;11.66;57.51;101978.41;5072836;28;20040;-70
2022/12/05 01:15:54;;;;;;;40.03;22.65;;;;;;;11.17;58.83;101977.81;5073347;28;20099;-71
2022/12/05 01:18:20;;;;;;;44.38;22.63;;;;;;;11.30;57.73;101976.00;5072516;28;20037;-70
2022/12/05 01:20:47;;;;;;;39.85;21.55;;;;;;;11.37;58.00;101981.41;5072375;28;20120;-69
2022/12/05 01:23:13;;;;;;;39.28;21.45;;;;;;;11.30;58.34;101978.69;5073215;28;20041;-69
2022/12/05 01:25:39;;;;;;;41.97;22.95;;;;;;;11.25;58.61;101975.78;5073165;28;20122;-70
2022/12/05 01:28:05;;;;;;;41.58;21.85;;;;;;;11.37;57.92;101976.03;5073656;28;20123;-70
2022/12/05 01:30:31;;;;;;;37.83;21.63;;;;;;;11.35;58.36;101983.47;5073094;28;20108;-70
2022/12/05 01:32:58;;;;;;;41.72;21.65;;;;;;;11.00;59.19;101987.28;5073006;28;20368;-69
2022/12/05 01:35:24;;;;;;;47.40;22.00;;;;;;;11.09;59.06;101986.91;5072919;28;20052;-70
2022/12/05 01:37:50;;;;;;;43.28;21.65;;;;;;;11.70;57.31;101993.13;5072730;28;20032;-70
2022/12/05 01:40:16;;;;;;;39.15;20.23;;;;;;;11.43;58.22;101986.84;5072622;28;20123;-70
2022/12/05 01:42:41;;;;;;;38.97;21.45;;;;;;;11.18;58.92;101991.06;5073200;28;20069;-70
2022/12/05 01:45:14;;;;;;;42.03;22.17;;;;;;;11.15;59.28;101990.66;5072807;28;20041;-69
2022/12/05 01:47:40;;;;;;;41.38;21.20;;;;;;;11.15;58.63;101991.47;5072654;28;20111;-71
2022/12/05 01:50:07;;;;;;;46.72;22.60;;;;;;;11.44;58.12;101991.16;5072495;28;20423;-70
2022/12/05 01:52:33;;;;;;;44.72;22.98;;;;;;;11.80;57.58;101987.34;5072494;28;20181;-69
2022/12/05 01:55:09;;;;;;;40.15;20.50;;;;;;;11.79;57.77;101991.91;5055177;28;20060;-70
2022/12/05 01:57:35;;;;;;;38.10;20.63;;;;;;;11.65;57.99;101986.66;5072490;28;20055;-70
2022/12/05 02:00:13;;;;;;;39.97;22.02;;;;;;;11.94;57.11;101989.00;5054081;28;20052;-71
2022/12/05 02:02:41;;;;;;;39.83;20.95;;;;;;;11.54;58.24;101990.78;5072165;28;20032;-70
2022/12/05 02:05:14;;;;;;;36.13;20.67;;;;;;;11.16;60.03;101989.63;5072417;28;20506;-71
2022/12/05 02:07:42;;;;;;;41.38;22.90;;;;;;;11.13;59.51;101985.47;5072201;28;20094;-70
2022/12/05 02:10:08;;;;;;;42.95;22.52;;;;;;;11.21;59.70;101979.91;5054642;28;20032;-70
2022/12/05 02:12:34;;;;;;;42.83;20.58;;;;;;;11.09;59.86;101983.38;5072113;28;20036;-72
2022/12/05 02:15:16;;;;;;;37.63;20.73;;;;;;;11.06;60.77;101975.72;5071778;28;20060;-70
2022/12/05 02:18:05;;;;;;;36.40;21.33;;;;;;;11.56;59.04;101977.94;5072138;28;20081;-71
2022/12/05 02:20:47;;;;;;;44.10;21.45;;;;;;;10.94;60.74;101975.47;5072057;28;20041;-70
2022/12/05 02:23:22;;;;;;;38.67;21.67;;;;;;;11.34;59.72;101973.75;5071945;28;20032;-69
2022/12/05 02:26:25;;;;;;;41.25;20.45;;;;;;;10.86;60.45;101980.16;5072030;28;20049;-69
2022/12/05 02:29:19;;;;;;;37.20;21.30;;;;;;;11.24;59.92;101968.75;5072016;28;20024;-69
2022/12/05 02:32:03;;;;;;;37.58;19.60;;;;;;;11.54;59.04;101965.75;5071426;28;20036;-71
2022/12/05 02:34:51;;;;;;;41.15;22.35;;;;;;;11.35;59.29;101965.47;5053844;28;20036;-71
2022/12/05 02:37:21;;;;;;;34.90;20.90;;;;;;;11.21;60.22;101971.84;5072025;28;20023;-71
2022/12/05 02:40:03;;;;;;;42.03;21.52;;;;;;;11.48;59.75;101960.13;5072031;28;20032;-69
2022/12/05 02:42:35;;;;;;;38.65;20.80;;;;;;;11.46;59.71;101954.13;5071633;28;20032;-72
2022/12/05 02:45:11;;;;;;;36.75;20.63;;;;;;;11.53;59.52;101962.22;5071645;28;20052;-71
2022/12/05 02:47:46;;;;;;;38.10;21.67;;;;;;;11.44;60.03;101966.94;5058263;28;20071;-70
2022/12/05 02:50:16;;;;;;;37.05;21.90;;;;;;;11.54;59.64;101963.06;5056135;28;20041;-70
2022/12/05 02:52:45;;;;;;;35.97;21.15;;;;;;;11.03;61.48;101958.13;5053385;28;20048;-69
2022/12/05 02:55:14;;;;;;;40.78;22.60;;;;;;;11.26;60.89;101966.69;5072036;28;20400;-68
2022/12/05 02:57:44;;;;;;;40.60;23.20;;;;;;;11.01;62.09;101965.56;5071629;28;20049;-69
2022/12/05 03:00:10;;;;;;;51.78;25.42;;;;;;;10.87;62.64;101952.28;5071489;28;20385;-70
2022/12/05 03:02:38;;;;;;;40.45;22.17;;;;;;;11.22;61.43;101961.91;5071549;28;20082;-70
2022/12/05 03:05:20;;;;;;;42.20;22.38;;;;;;;11.52;60.27;101958.69;5071374;28;20033;-69
2022/12/05 03:07:48;;;;;;;46.08;23.58;;;;;;;11.75;59.25;101954.81;5071239;28;20041;-68
2022/12/05 03:10:18;;;;;;;42.38;23.50;;;;;;;11.66;59.84;101954.19;5071104;28;20071;-70
2022/12/05 03:12:50;;;;;;;46.78;23.98;;;;;;;12.05;58.36;101953.38;5071892;28;20043;-71
2022/12/05 03:15:46;;;;;;;44.70;23.98;;;;;;;12.05;58.80;101958.75;5071230;28;20029;-69
2022/12/05 03:18:45;;;;;;;43.90;23.00;;;;;;;11.90;59.07;101956.28;5069203;28;20131;-69
2022/12/05 03:21:37;;;;;;;43.30;22.55;;;;;;;11.35;61.35;101953.88;4989228;28;20046;-70
2022/12/05 03:24:06;;;;;;;40.95;23.35;;;;;;;11.47;59.95;101966.56;4989136;28;20080;-69
2022/12/05 03:26:50;;;;;;;44.88;23.38;;;;;;;11.31;60.71;101963.38;4989325;28;20045;-68
2022/12/05 03:29:25;;;;;;;39.60;22.33;;;;;;;11.64;60.51;101966.97;4989255;28;20058;-68
2022/12/05 03:32:07;;;;;;;41.42;22.13;;;;;;;11.87;59.72;101966.66;4989321;28;20043;-69
2022/12/05 03:34:44;;;;;;;41.92;23.15;;;;;;;11.58;60.36;101970.50;4972856;28;20139;-69
2022/12/05 03:37:41;;;;;;;39.22;22.77;;;;;;;11.84;59.81;101970.56;4989533;28;20035;-71
2022/12/05 03:40:15;;;;;;;38.53;23.13;;;;;;;12.22;57.81;101971.63;4989158;28;20082;-70
2022/12/05 03:42:50;;;;;;;47.92;24.55;;;;;;;12.37;57.43;101971.38;4990158;28;20046;-70
2022/12/05 03:45:22;;;;;;;41.05;22.77;;;;;;;12.41;58.15;101972.63;4992912;28;20129;-70
2022/12/05 03:48:06;;;;;;;37.90;23.02;;;;;;;12.05;58.73;101983.84;4993011;28;20049;-70
2022/12/05 03:50:36;;;;;;;44.80;23.83;;;;;;;12.27;58.19;101971.81;5000067;28;20510;-69
2022/12/05 03:53:06;;;;;;;43.75;24.25;;;;;;;12.20;58.39;101973.69;5012472;28;20038;-70
2022/12/05 03:55:36;;;;;;;37.03;21.90;;;;;;;12.33;58.36;101979.06;5012460;28;20045;-68
2022/12/05 03:58:11;;;;;;;44.67;22.63;;;;;;;11.60;60.44;101984.59;5041393;28;20439;-71
2022/12/05 04:00:41;;;;;;;38.58;22.48;;;;;;;12.40;57.83;101980.94;5054423;28;20041;-69
2022/12/05 04:03:13;;;;;;;42.67;23.23;;;;;;;13.04;56.14;101979.13;5054473;28;20033;-70
2022/12/05 04:05:50;;;;;;;47.67;24.60;;;;;;;12.48;57.50;101983.41;5054294;28;20036;-69
2022/12/05 04:08:23;;;;;;;40.58;23.20;;;;;;;12.21;58.94;101979.91;5070087;28;20092;-69
2022/12/05 04:10:52;;;;;;;46.15;24.60;;;;;;;11.83;60.08;101982.38;5074585;28;20029;-70
2022/12/05 04:13:49;;;;;;;44.67;25.33;;;;;;;11.99;59.68;101981.97;5058202;28;20128;-70
2022/12/05 04:17:05;;;;;;;44.60;22.85;;;;;;;12.42;58.48;101981.56;5063400;28;20036;-69
2022/12/05 04:22:32;;;;;;;47.85;25.00;;;;;;;12.69;58.05;101977.75;4992624;28;20057;-69
2022/12/05 04:28:03;;;;;;;48.47;23.92;;;;;;;12.23;59.52;101988.59;4992593;28;20077;-69
2022/12/05 04:30:44;;;;;;;44.65;22.38;;;;;;;12.68;58.51;101984.19;4991872;28;20053;-69
2022/12/05 04:33:22;;;;;;;42.78;23.55;;;;;;;12.48;58.77;101984.22;4992342;28;20042;-69
2022/12/05 04:35:50;;;;;;;50.67;25.02;;;;;;;12.34;59.54;101977.22;4992193;28;20083;-68
2022/12/05 04:38:41;;;;;;;51.60;24.67;;;;;;;12.44;58.32;101983.00;4992178;28;20042;-69
2022/12/05 04:41:13;;;;;;;43.65;24.25;;;;;;;12.63;58.29;101976.75;4934071;29;20127;-69
2022/12/05 04:43:41;;;;;;;42.72;22.90;;;;;;;12.71;58.50;101970.28;4921994;29;20040;-69
2022/12/05 04:46:10;;;;;;;51.20;26.10;;;;;;;12.76;58.42;101970.47;4918769;29;20044;-69
2022/12/05 04:48:39;;;;;;;47.72;24.52;;;;;;;12.58;59.08;101971.13;4953265;28;20055;-69
2022/12/05 04:51:08;;;;;;;56.53;27.42;;;;;;;12.33;59.79;101967.44;4953243;28;20035;-70
2022/12/05 04:53:35;;;;;;;54.45;26.48;;;;;;;11.82;60.99;101971.81;4952931;28;20404;-69
2022/12/05 04:56:03;;;;;;;48.97;23.80;;;;;;;12.91;58.11;101971.06;4964359;28;20034;-69
2022/12/05 04:58:30;;;;;;;49.38;25.88;;;;;;;12.68;58.49;101965.31;4972449;28;20039;-70
2022/12/05 05:01:11;;;;;;;45.22;24.67;;;;;;;12.71;58.75;101968.44;4972641;28;20483;-70
2022/12/05 05:03:58;;;;;;;53.35;25.48;;;;;;;12.35;60.14;101970.78;4990099;28;20038;-69
2022/12/05 05:06:25;;;;;;;53.63;26.08;;;;;;;12.34;59.92;101977.22;4991514;28;20042;-70
2022/12/05 05:08:56;;;;;;;48.15;25.25;;;;;;;12.15;60.03;101964.56;4993287;28;20034;-71
2022/12/05 05:11:24;;;;;;;52.03;25.27;;;;;;;12.77;58.58;101964.06;4990907;28;20074;-70
2022/12/05 05:13:50;;;;;;;50.60;24.02;;;;;;;12.75;58.23;101971.53;4991015;28;20046;-70
2022/12/05 05:16:21;;;;;;;50.20;24.30;;;;;;;13.04;57.53;101965.66;4991085;28;20048;-69
2022/12/05 05:18:48;;;;;;;52.58;25.48;;;;;;;13.29;56.81;101965.75;5056549;28;20438;-70
2022/12/05 05:21:20;;;;;;;53.40;24.80;;;;;;;12.58;58.46;101970.34;5073354;28;20047;-70
2022/12/05 05:23:46;;;;;;;49.47;24.58;;;;;;;12.84;58.48;101971.09;5073050;28;20131;-70
2022/12/05 05:26:11;;;;;;;56.75;27.15;;;;;;;12.20;60.13;101983.66;5073149;28;20119;-69
2022/12/05 05:28:37;;;;;;;47.83;24.00;;;;;;;12.69;58.59;101983.16;5073353;28;20074;-70
2022/12/05 05:31:03;;;;;;;47.72;24.75;;;;;;;13.26;57.18;101975.09;5073689;28;20040;-70
2022/12/05 05:33:29;;;;;;;46.85;23.63;;;;;;;12.97;58.63;101973.72;5073107;28;20037;-70
2022/12/05 05:35:54;;;;;;;48.10;25.13;;;;;;;12.41;59.76;101979.88;5063140;28;20044;-70
2022/12/05 05:38:19;;;;;;;47.80;21.67;;;;;;;12.87;58.36;101972.53;5051187;28;20500;-69
2022/12/05 05:40:45;;;;;;;50.78;23.50;;;;;;;12.99;57.62;101973.53;5051173;28;20056;-69
2022/12/05 05:43:10;;;;;;;47.95;23.75;;;;;;;13.11;57.82;101972.66;5061588;28;20036;-69
2022/12/05 05:45:36;;;;;;;45.28;23.42;;;;;;;12.78;58.50;101976.47;5072639;28;20029;-70
2022/12/05 05:48:02;;;;;;;46.63;22.90;;;;;;;12.99;57.65;101973.53;5071446;28;20408;-69
2022/12/05 05:50:27;;;;;;;49.83;23.92;;;;;;;12.89;58.12;101973.97;5071354;28;20078;-70
2022/12/05 05:52:53;;;;;;;43.28;23.27;;;;;;;12.54;59.53;101972.59;5072547;28;20032;-69
2022/12/05 05:55:18;;;;;;;49.08;23.73;;;;;;;12.91;58.18;101976.47;5072448;28;20633;-70
2022/12/05 05:57:44;;;;;;;45.08;21.83;;;;;;;12.66;58.70;101979.00;5072714;28;20032;-70
2022/12/05 06:00:10;;;;;;;40.35;21.38;;;;;;;13.02;58.37;101982.03;5071671;28;20040;-69
2022/12/05 06:02:36;;;;;;;40.40;20.88;;;;;;;12.76;59.33;101982.09;5071620;28;20032;-68
2022/12/05 06:05:02;;;;;;;40.30;20.98;;;;;;;13.00;57.79;101969.78;5070741;28;20059;-69
2022/12/05 06:07:28;;;;;;;38.72;20.75;;;;;;;12.90;58.15;101988.28;5068099;28;20036;-69
2022/12/05 06:09:53;;;;;;;39.88;21.23;;;;;;;13.21;57.57;101981.13;5071284;28;20043;-70
2022/12/05 06:12:18;;;;;;;37.17;21.27;;;;;;;13.64;56.15;101975.91;5069634;28;20123;-70
2022/12/05 06:14:46;;;;;;;37.05;18.98;;;;;;;13.34;56.99;101985.66;5070735;28;20036;-70
2022/12/05 06:17:11;;;;;;;33.28;20.48;;;;;;;13.20;56.98;101989.47;5066898;28;20645;-69
2022/12/05 06:19:37;;;;;;;35.25;19.50;;;;;;;12.65;58.53;101984.63;5070929;28;20037;-70
2022/12/05 06:22:02;;;;;;;36.35;20.13;;;;;;;13.17;57.19;101981.78;5071473;28;20489;-70
2022/12/05 06:24:27;;;;;;;36.05;18.70;;;;;;;13.04;57.49;101977.28;5063305;28;20095;-70
2022/12/05 06:26:53;;;;;;;32.65;19.63;;;;;;;12.56;59.16;101977.81;5070568;28;20056;-70
2022/12/05 06:29:18;;;;;;;33.28;19.15;;;;;;;13.05;57.47;101984.31;5070736;28;20556;-72
2022/12/05 06:31:43;;;;;;;36.92;19.73;;;;;;;12.68;59.37;101989.56;5060227;28;20508;-68
2022/12/05 06:34:09;;;;;;;28.33;17.98;;;;;;;12.97;58.14;101987.22;5071512;28;20447;-71
2022/12/05 06:36:35;;;;;;;30.95;18.20;;;;;;;13.58;56.03;101979.47;5070706;28;20051;-70
2022/12/05 06:39:00;;;;;;;31.35;17.23;;;;;;;13.48;56.42;101981.84;5070451;28;20032;-69
2022/12/05 06:41:26;;;;;;;31.65;18.75;;;;;;;13.00;57.81;101981.41;5070540;28;20045;-70
2022/12/05 06:43:53;;;;;;;34.33;18.55;;;;;;;13.45;56.78;101984.97;5070821;28;20105;-71
2022/12/05 06:46:20;;;;;;;27.67;16.50;;;;;;;12.93;58.28;101982.47;5070896;28;20394;-71
2022/12/05 06:48:45;;;;;;;28.95;16.52;;;;;;;12.97;57.99;101987.22;5071672;28;20036;-72
2022/12/05 06:51:14;;;;;;;28.45;17.83;;;;;;;13.32;56.84;101971.53;5071184;28;20028;-70
2022/12/05 06:53:40;;;;;;;30.67;17.25;;;;;;;12.78;58.18;101980.03;5070140;28;20403;-71
2022/12/05 06:56:10;;;;;;;28.90;18.05;;;;;;;12.96;57.58;101979.34;5070192;28;20136;-71
2022/12/05 06:58:35;;;;;;;27.20;16.95;;;;;;;13.12;57.59;101974.34;5070531;28;20123;-71
2022/12/05 07:03:47;;;;;;;26.08;15.52;;;;;;;13.38;56.64;101984.19;5070364;28;20047;-70
2022/12/05 07:06:13;;;;;;;23.88;16.33;;;;;;;12.99;57.29;101982.44;5070051;28;20032;-71
2022/12/05 07:08:40;;;;;;;26.00;15.48;;;;;;;12.63;59.03;101984.00;5060021;28;20033;-71
2022/12/05 07:11:06;;;;;;;28.58;16.15;;;;;;;13.21;56.99;101978.44;5069072;28;20056;-73
2022/12/05 07:13:32;;;;;;;24.60;15.50;;;;;;;13.85;55.13;101991.78;5068844;28;20055;-70
2022/12/05 07:15:58;;;;;;;22.48;14.98;;;;;;;13.69;55.41;101994.19;5066869;28;20037;-71
2022/12/05 07:18:24;;;;;;;24.40;14.88;;;;;;;12.66;58.31;102000.59;5069010;28;20047;-71
2022/12/05 07:21:01;;;;;;;22.67;14.07;;;;;;;13.26;56.99;101999.41;5068079;28;20187;-71
2022/12/05 07:23:27;;;;;;;23.33;14.82;;;;;;;13.77;55.63;102000.16;5069334;28;20093;-71
2022/12/05 07:25:53;;;;;;;25.73;15.25;;;;;;;13.52;56.54;102001.94;5069189;28;20052;-71
2022/12/05 07:28:18;;;;;;;24.60;13.93;;;;;;;12.72;58.26;102010.53;5068653;28;20090;-71
2022/12/05 07:30:44;;;;;;;22.65;12.57;;;;;;;12.96;58.41;102012.56;5070146;28;20024;-74
2022/12/05 07:33:09;;;;;;;19.05;12.38;;;;;;;13.18;58.47;102013.97;5069132;28;20039;-71
2022/12/05 07:35:34;;;;;;;18.67;13.00;;;;;;;13.15;57.84;102006.28;5069315;28;20127;-70
2022/12/05 07:38:00;;;;;;;15.90;10.98;;;;;;;12.59;58.98;102009.72;5069386;28;20499;-70
2022/12/05 07:40:25;;;;;;;20.92;12.23;;;;;;;12.43;60.59;102011.00;5069134;28;20045;-72
2022/12/05 07:42:52;;;;;;;16.23;10.93;;;;;;;12.86;59.33;102006.78;5069575;28;20441;-70
2022/12/05 07:45:18;;;;;;;15.77;11.15;;;;;;;13.43;57.68;102005.13;5066466;28;20037;-71
2022/12/05 07:47:44;;;;;;;17.20;11.57;;;;;;;13.44;57.18;102004.09;5069178;28;20090;-71
2022/12/05 07:50:10;;;;;;;14.70;11.38;;;;;;;13.53;56.70;101998.22;5069390;28;20052;-70
2022/12/05 07:52:35;;;;;;;15.88;10.80;;;;;;;13.38;57.37;102003.09;5069807;28;20033;-69
2022/12/05 07:55:00;;;;;;;15.88;11.00;;;;;;;13.56;56.51;102005.88;5067893;28;20476;-70
2022/12/05 07:57:29;;;;;;;14.60;9.88;;;;;;;13.51;57.00;102018.38;5066324;28;20084;-71
2022/12/05 07:59:54;;;;;;;14.15;10.57;;;;;;;13.14;58.03;102017.31;5069529;28;20508;-71
2022/12/05 08:02:20;;;;;;;11.73;9.15;;;;;;;13.17;57.74;102023.09;5065084;28;20190;-71
2022/12/05 08:04:45;;;;;;;12.07;9.20;;;;;;;12.97;58.69;102029.56;5063680;28;20037;-70
2022/12/05 08:07:11;;;;;;;12.23;9.02;;;;;;;13.28;57.29;102012.69;5066868;28;20116;-71
2022/12/05 08:09:36;;;;;;;10.77;7.88;;;;;;;13.53;56.97;102021.69;5068638;28;20033;-71
2022/12/05 08:12:02;;;;;;;12.60;9.10;;;;;;;13.61;55.83;102022.28;5069149;28;20037;-70
2022/12/05 08:14:27;;;;;;;11.43;8.52;;;;;;;14.12;54.44;102024.84;5069120;28;20127;-72
2022/12/05 08:16:52;;;;;;;9.57;7.68;;;;;;;13.78;55.78;102027.97;5061498;28;20377;-72
2022/12/05 08:19:18;;;;;;;8.70;6.95;;;;;;;14.09;55.16;102025.31;5069462;28;20120;-70
2022/12/05 08:21:43;;;;;;;7.85;6.20;;;;;;;13.17;57.80;102024.97;5065358;28;20495;-71
2022/12/05 08:24:10;;;;;;;9.02;6.70;;;;;;;13.71;56.74;102022.63;5068848;28;20043;-72
2022/12/05 08:26:36;;;;;;;7.38;6.35;;;;;;;13.52;57.29;102028.16;5050368;28;20045;-70
2022/12/05 08:29:06;;;;;;;8.32;6.55;;;;;;;14.37;54.61;102033.03;5052281;28;20044;-72
2022/12/05 08:31:34;;;;;;;8.85;5.82;;;;;;;13.82;56.11;102035.44;5059585;28;20033;-72
2022/12/05 08:34:00;;;;;;;6.07;5.10;;;;;;;14.33;54.51;102037.22;5073762;28;20037;-72
2022/12/05 08:36:27;;;;;;;6.95;5.25;;;;;;;13.99;55.87;102035.75;5073078;28;20431;-71
2022/12/05 08:38:58;;;;;;;6.80;5.22;;;;;;;13.49;57.63;102039.38;5073165;28;20033;-71
2022/12/05 08:41:28;;;;;;;5.57;4.93;;;;;;;13.23;58.72;102039.50;5073116;28;20528;-71
2022/12/05 08:43:55;;;;;;;5.38;4.13;;;;;;;13.48;57.93;102048.53;5073120;28;20040;-70
2022/12/05 08:46:20;;;;;;;4.65;4.05;;;;;;;13.83;56.45;102047.91;5073142;28;20064;-70
2022/12/05 08:48:46;;;;;;;4.20;3.58;;;;;;;13.98;56.36;102047.59;5073431;28;20108;-71
2022/12/05 08:51:12;;;;;;;5.10;4.57;;;;;;;13.92;56.26;102051.19;5073170;28;20037;-70
2022/12/05 08:53:39;;;;;;;4.25;3.50;;;;;;;13.11;58.90;102044.69;5072880;28;20437;-71
2022/12/05 08:56:07;;;;;;;4.35;3.38;;;;;;;12.99;58.92;102049.88;5072627;28;20048;-72
2022/12/05 08:58:33;;;;;;;8.43;3.90;;;;;;;13.98;56.47;102040.34;5072819;28;20094;-70
2022/12/05 09:01:07;;;;;;;4.80;3.83;;;;;;;13.71;57.01;102032.59;5073290;28;20606;-71
2022/12/05 09:03:33;;;;;;;6.80;3.63;;;;;;;13.45;57.81;102047.06;5073041;28;20081;-71
2022/12/05 09:06:17;;;;;;;6.45;4.35;;;;;;;13.36;58.36;102052.94;5071188;28;20052;-70
2022/12/05 09:08:43;;;;;;;4.72;4.18;;;;;;;13.43;57.98;102056.41;5072424;28;20029;-72
2022/12/05 09:11:19;;;;;;;4.35;3.95;;;;;;;13.52;56.90;102052.44;5072424;28;20496;-70
2022/12/05 09:13:46;;;;;;;4.93;3.92;;;;;;;13.28;58.79;102048.59;5072379;28;20044;-71
2022/12/05 09:16:17;;;;;;;4.75;3.85;;;;;;;13.44;58.02;102056.22;5062914;28;20132;-71
2022/12/05 09:18:43;;;;;;;5.32;4.68;;;;;;;13.19;59.00;102057.97;5051377;28;20462;-71
2022/12/05 09:21:20;;;;;;;5.35;4.45;;;;;;;12.88;59.92;102071.28;5052678;28;20082;-71
2022/12/05 09:23:46;;;;;;;5.65;4.88;;;;;;;13.53;57.75;102060.34;5051072;28;20041;-71
2022/12/05 09:26:15;;;;;;;7.15;5.55;;;;;;;13.55;57.62;102060.94;5052131;28;20099;-70
2022/12/05 09:28:41;;;;;;;6.18;5.57;;;;;;;13.45;57.77;102063.28;5063401;28;20495;-70
2022/12/05 09:31:11;;;;;;;6.35;4.95;;;;;;;13.63;57.51;102062.56;5071926;28;20032;-71
2022/12/05 09:33:37;;;;;;;6.88;5.15;;;;;;;13.61;56.93;102070.91;5072210;28;20403;-71
2022/12/05 09:36:12;;;;;;;6.90;4.90;;;;;;;13.71;57.00;102067.72;5071634;28;20047;-71
2022/12/05 09:38:37;;;;;;;8.48;5.20;;;;;;;13.23;58.62;102067.28;5070097;28;20060;-71
2022/12/05 09:42:04;;;;;;;4.68;4.20;;;;;;;13.37;58.63;102066.22;5070612;28;20060;-71
2022/12/05 09:44:40;;;;;;;6.93;4.78;;;;;;;13.72;57.46;102072.09;5008779;28;20561;-70
2022/12/05 09:47:32;;;;;;;6.85;4.28;;;;;;;13.39;58.33;102068.69;5009536;28;20561;-71
2022/12/05 09:50:14;;;;;;;7.68;5.47;;;;;;;12.94;59.08;102083.94;4931428;29;20047;-70
2022/12/05 09:53:12;;;;;;;9.70;5.13;;;;;;;12.88;60.08;102082.94;4930629;29;20035;-72
2022/12/05 09:55:40;;;;;;;7.07;5.32;;;;;;;13.14;59.09;102073.97;4930421;29;20036;-72
2022/12/05 09:58:18;;;;;;;6.63;4.93;;;;;;;12.89;60.14;102073.78;4932041;29;20036;-71
2022/12/05 10:00:44;;;;;;;10.20;5.85;;;;;;;14.01;56.56;102074.22;4931592;29;20139;-71
2022/12/05 10:03:44;;;;;;;11.43;5.97;;;;;;;13.92;57.18;102081.75;4931383;29;20566;-70
2022/12/05 10:06:20;;;;;;;8.95;6.03;;;;;;;13.96;57.16;102074.84;4865080;29;20538;-71
2022/12/05 10:08:48;;;;;;;7.53;5.75;;;;;;;12.85;60.23;102083.34;4874792;29;20475;-71
2022/12/05 10:11:23;;;;;;;8.98;5.80;;;;;;;12.77;60.86;102088.13;4874751;29;20348;-70
2022/12/05 10:14:02;;;;;;;9.20;6.32;;;;;;;13.10;60.27;102078.97;4874483;29;20049;-70
2022/12/05 10:16:33;;;;;;;9.70;6.20;;;;;;;12.95;60.24;102085.63;4870379;29;20310;-70
2022/12/05 10:19:05;;;;;;;8.90;6.78;;;;;;;13.53;59.06;102071.13;4887921;29;20028;-71
2022/12/05 10:21:46;;;;;;;12.20;6.47;;;;;;;14.10;57.54;102070.19;4929070;29;20031;-72
2022/12/05 10:24:16;;;;;;;11.68;6.88;;;;;;;13.40;59.45;102075.75;4926381;29;20044;-71
2022/12/05 10:26:48;;;;;;;10.68;6.40;;;;;;;13.95;57.82;102072.38;4950002;28;20462;-72
2022/12/05 10:29:13;;;;;;;10.90;7.10;;;;;;;13.18;59.85;102069.81;4988861;28;20515;-70
2022/12/05 10:31:41;;;;;;;8.52;6.25;;;;;;;13.39;60.05;102068.69;4988649;28;20129;-72
2022/12/05 10:34:31;;;;;;;11.27;6.75;;;;;;;13.00;60.73;102073.16;4986571;28;20380;-71
2022/12/05 10:37:20;;;;;;;13.48;7.47;;;;;;;13.88;58.34;102061.59;4987522;28;20102;-72
2022/12/05 10:39:47;;;;;;;15.98;7.72;;;;;;;13.47;59.87;102060.34;4988479;28;20050;-72
2022/12/05 10:42:23;;;;;;;12.35;7.85;;;;;;;13.30;60.14;102067.28;5039111;28;20131;-72
2022/12/05 10:44:57;;;;;;;11.52;7.55;;;;;;;13.17;60.65;102060.03;5070868;28;20060;-71
2022/12/05 10:47:23;;;;;;;10.38;6.80;;;;;;;12.78;61.90;102065.50;5069295;28;20044;-71
2022/12/05 10:49:49;;;;;;;11.80;7.20;;;;;;;12.97;62.02;102068.16;5070876;28;20055;-71
2022/12/05 10:52:15;;;;;;;12.75;7.30;;;;;;;13.92;58.86;102067.38;5070461;28;20508;-72
2022/12/05 10:54:46;;;;;;;16.40;7.82;;;;;;;14.26;57.57;102060.72;5069663;28;20127;-72
2022/12/05 10:57:27;;;;;;;12.95;7.50;;;;;;;13.71;59.05;102057.75;5070783;28;20029;-71
2022/12/05 10:59:53;;;;;;;9.40;6.88;;;;;;;13.57;59.21;102063.44;5070669;28;20586;-71
2022/12/05 11:02:28;;;;;;;15.23;7.15;;;;;;;13.16;61.44;102064.63;5070598;28;20102;-71
2022/12/05 11:04:55;;;;;;;15.10;7.32;;;;;;;13.23;60.59;102065.44;5070489;28;20033;-71
2022/12/05 11:07:29;;;;;;;12.15;8.85;;;;;;;13.21;60.90;102056.72;5070672;28;20528;-72
2022/12/05 11:09:54;;;;;;;11.55;7.15;;;;;;;13.78;59.42;102063.09;5070931;28;20028;-73
2022/12/05 11:12:22;;;;;;;16.27;8.07;;;;;;;13.29;60.49;102055.66;5069612;28;20090;-72
2022/12/05 11:14:53;;;;;;;14.55;7.20;;;;;;;13.42;60.55;102069.13;5036895;28;20049;-72
2022/12/05 11:17:36;;;;;;;17.52;9.70;;;;;;;13.91;58.53;102057.66;5049785;28;20134;-72
2022/12/05 11:20:32;;;;;;;13.05;8.35;;;;;;;13.45;59.72;102057.88;5050300;28;20045;-71
2022/12/05 11:22:58;;;;;;;15.20;7.38;;;;;;;13.54;59.75;102058.47;5050168;28;20036;-72
2022/12/05 11:25:34;;;;;;;16.02;8.20;;;;;;;13.55;59.96;102055.53;5041694;28;20443;-73
2022/12/05 11:28:19;;;;;;;15.68;8.25;;;;;;;13.52;59.96;102058.66;5050957;28;20068;-71
2022/12/05 11:31:13;;;;;;;15.13;7.90;;;;;;;13.39;60.12;102058.72;5050513;28;20122;-72
2022/12/05 11:33:39;;;;;;;11.43;7.18;;;;;;;13.29;59.78;102057.53;5050261;28;20045;-73
2022/12/05 11:36:13;;;;;;;13.43;7.28;;;;;;;13.01;61.04;102060.50;5050443;28;20037;-73
2022/12/05 11:38:40;;;;;;;10.57;7.72;;;;;;;12.47;63.08;102060.75;5031592;28;20036;-71